sensor_id;sensor_type;location;lat;lon;timestamp;temperature;humidity
9907;DHT22;4992;51.628;6.664;2022-10-18T00:01:53;14.80;99.90
9907;DHT22;4992;51.628;6.664;2022-10-18T00:04:19;14.80;99.90
9907;DHT22;4992;51.628;6.664;2022-10-18T00:06:44;14.80;99.90
9907;DHT22;4992;51.628;6.664;2022-10-18T00:09:10;14.80;99.90
9907;DHT22;4992;51.628;6.664;2022-10-18T00:11:37;14.80;99.90
9907;DHT22;4992;51.628;6.664;2022-10-18T00:14:02;14.80;99.90
9907;DHT22;4992;51.628;6.664;2022-10-18T00:16:28;14.70;99.90
9907;DHT22;4992;51.628;6.664;2022-10-18T00:18:53;14.70;99.90
9907;DHT22;4992;51.628;6.664;2022-10-18T00:21:21;14.70;99.90
9907;DHT22;4992;51.628;6.664;2022-10-18T00:23:47;14.70;99.90
9907;DHT22;4992;51.628;6.664;2022-10-18T00:26:16;14.70;99.90
9907;DHT22;4992;51.628;6.664;2022-10-18T00:28:43;14.60;99.90
9907;DHT22;4992;51.628;6.664;2022-10-18T00:31:17;14.60;99.90
9907;DHT22;4992;51.628;6.664;2022-10-18T00:33:44;14.60;99.90
9907;DHT22;4992;51.628;6.664;2022-10-18T00:36:10;14.60;99.90
9907;DHT22;4992;51.628;6.664;2022-10-18T00:38:37;14.60;99.90
9907;DHT22;4992;51.628;6.664;2022-10-18T00:41:03;14.60;99.90
9907;DHT22;4992;51.628;6.664;2022-10-18T00:43:29;14.60;99.90
9907;DHT22;4992;51.628;6.664;2022-10-18T00:45:55;14.60;99.90
9907;DHT22;4992;51.628;6.664;2022-10-18T00:48:20;14.60;99.90
9907;DHT22;4992;51.628;6.664;2022-10-18T00:50:47;14.70;99.90
9907;DHT22;4992;51.628;6.664;2022-10-18T00:53:18;14.60;99.90
9907;DHT22;4992;51.628;6.664;2022-10-18T00:55:44;14.60;99.90
9907;DHT22;4992;51.628;6.664;2022-10-18T00:58:12;14.60;99.90
9907;DHT22;4992;51.628;6.664;2022-10-18T01:00:38;14.60;99.90
9907;DHT22;4992;51.628;6.664;2022-10-18T01:03:05;14.60;99.90
9907;DHT22;4992;51.628;6.664;2022-10-18T01:05:32;14.70;99.90
9907;DHT22;4992;51.628;6.664;2022-10-18T01:10:53;14.70;99.90
9907;DHT22;4992;51.628;6.664;2022-10-18T01:13:42;14.70;99.90
9907;DHT22;4992;51.628;6.664;2022-10-18T01:16:20;14.70;99.90
9907;DHT22;4992;51.628;6.664;2022-10-18T01:19:35;14.70;99.90
9907;DHT22;4992;51.628;6.664;2022-10-18T01:21:43;14.70;99.90
9907;DHT22;4992;51.628;6.664;2022-10-18T01:24:52;14.70;99.90
9907;DHT22;4992;51.628;6.664;2022-10-18T01:27:35;14.70;99.90
9907;DHT22;4992;51.628;6.664;2022-10-18T01:30:35;14.70;99.90
9907;DHT22;4992;51.628;6.664;2022-10-18T01:35:34;14.70;99.90
9907;DHT22;4992;51.628;6.664;2022-10-18T01:38:05;14.70;99.90
9907;DHT22;4992;51.628;6.664;2022-10-18T01:40:32;14.70;99.90
9907;DHT22;4992;51.628;6.664;2022-10-18T01:43:00;14.70;99.90
9907;DHT22;4992;51.628;6.664;2022-10-18T01:45:27;14.70;99.90
9907;DHT22;4992;51.628;6.664;2022-10-18T01:47:53;14.70;99.90
9907;DHT22;4992;51.628;6.664;2022-10-18T01:50:30;14.70;99.90
9907;DHT22;4992;51.628;6.664;2022-10-18T01:52:57;14.70;99.90
9907;DHT22;4992;51.628;6.664;2022-10-18T01:55:35;14.70;99.90
9907;DHT22;4992;51.628;6.664;2022-10-18T01:58:08;14.70;99.90
9907;DHT22;4992;51.628;6.664;2022-10-18T02:00:40;14.70;99.90
9907;DHT22;4992;51.628;6.664;2022-10-18T02:03:23;14.70;99.90
9907;DHT22;4992;51.628;6.664;2022-10-18T02:06:00;14.70;99.90
9907;DHT22;4992;51.628;6.664;2022-10-18T02:08:41;14.70;99.90
9907;DHT22;4992;51.628;6.664;2022-10-18T02:11:11;14.70;99.90
9907;DHT22;4992;51.628;6.664;2022-10-18T02:13:43;14.70;99.90
9907;DHT22;4992;51.628;6.664;2022-10-18T02:16:13;14.70;99.90
9907;DHT22;4992;51.628;6.664;2022-10-18T02:18:44;14.70;99.90
9907;DHT22;4992;51.628;6.664;2022-10-18T02:21:16;14.70;99.90
9907;DHT22;4992;51.628;6.664;2022-10-18T02:23:44;14.70;99.90
9907;DHT22;4992;51.628;6.664;2022-10-18T02:26:10;14.70;99.90
9907;DHT22;4992;51.628;6.664;2022-10-18T02:28:36;14.70;99.90
9907;DHT22;4992;51.628;6.664;2022-10-18T02:33:59;14.70;99.90
9907;DHT22;4992;51.628;6.664;2022-10-18T02:36:32;14.70;99.90
9907;DHT22;4992;51.628;6.664;2022-10-18T02:39:07;14.70;99.90
9907;DHT22;4992;51.628;6.664;2022-10-18T02:41:35;14.70;99.90
9907;DHT22;4992;51.628;6.664;2022-10-18T02:44:01;14.70;99.90
9907;DHT22;4992;51.628;6.664;2022-10-18T02:46:26;14.70;99.90
9907;DHT22;4992;51.628;6.664;2022-10-18T02:48:52;14.70;99.90
9907;DHT22;4992;51.628;6.664;2022-10-18T02:51:17;14.70;99.90
9907;DHT22;4992;51.628;6.664;2022-10-18T02:53:43;14.70;99.90
9907;DHT22;4992;51.628;6.664;2022-10-18T02:56:08;14.70;99.90
9907;DHT22;4992;51.628;6.664;2022-10-18T02:58:34;14.70;99.90
9907;DHT22;4992;51.628;6.664;2022-10-18T03:00:59;14.70;99.90
9907;DHT22;4992;51.628;6.664;2022-10-18T03:03:25;14.70;99.90
9907;DHT22;4992;51.628;6.664;2022-10-18T03:05:51;14.70;99.90
9907;DHT22;4992;51.628;6.664;2022-10-18T03:08:17;14.70;99.90
9907;DHT22;4992;51.628;6.664;2022-10-18T03:10:43;14.70;99.90
9907;DHT22;4992;51.628;6.664;2022-10-18T03:13:09;14.70;99.90
9907;DHT22;4992;51.628;6.664;2022-10-18T03:15:34;14.70;99.90
9907;DHT22;4992;51.628;6.664;2022-10-18T03:18:00;14.80;99.90
9907;DHT22;4992;51.628;6.664;2022-10-18T03:20:25;14.70;99.90
9907;DHT22;4992;51.628;6.664;2022-10-18T03:22:51;14.80;99.90
9907;DHT22;4992;51.628;6.664;2022-10-18T03:25:16;14.70;99.90
9907;DHT22;4992;51.628;6.664;2022-10-18T03:27:42;14.80;99.90
9907;DHT22;4992;51.628;6.664;2022-10-18T03:30:08;14.70;99.90
9907;DHT22;4992;51.628;6.664;2022-10-18T03:32:36;14.80;99.90
9907;DHT22;4992;51.628;6.664;2022-10-18T03:35:03;14.80;99.90
9907;DHT22;4992;51.628;6.664;2022-10-18T03:37:29;14.80;99.90
9907;DHT22;4992;51.628;6.664;2022-10-18T03:39:54;14.80;99.90
9907;DHT22;4992;51.628;6.664;2022-10-18T03:42:20;14.80;99.90
9907;DHT22;4992;51.628;6.664;2022-10-18T03:44:45;14.80;99.90
9907;DHT22;4992;51.628;6.664;2022-10-18T03:47:11;14.80;99.90
9907;DHT22;4992;51.628;6.664;2022-10-18T03:49:37;14.80;99.90
9907;DHT22;4992;51.628;6.664;2022-10-18T03:52:02;14.80;99.90
9907;DHT22;4992;51.628;6.664;2022-10-18T03:54:28;14.80;99.90
9907;DHT22;4992;51.628;6.664;2022-10-18T03:56:53;14.80;99.90
9907;DHT22;4992;51.628;6.664;2022-10-18T03:59:19;14.80;99.90
9907;DHT22;4992;51.628;6.664;2022-10-18T04:01:44;14.80;99.90
9907;DHT22;4992;51.628;6.664;2022-10-18T04:04:10;14.80;99.90
9907;DHT22;4992;51.628;6.664;2022-10-18T04:06:35;14.80;99.90
9907;DHT22;4992;51.628;6.664;2022-10-18T04:09:01;14.80;99.90
9907;DHT22;4992;51.628;6.664;2022-10-18T04:11:26;14.80;99.90
9907;DHT22;4992;51.628;6.664;2022-10-18T04:13:52;14.80;99.90
9907;DHT22;4992;51.628;6.664;2022-10-18T04:16:17;14.80;99.90
9907;DHT22;4992;51.628;6.664;2022-10-18T04:18:43;14.80;99.90
9907;DHT22;4992;51.628;6.664;2022-10-18T04:21:08;14.80;99.90
9907;DHT22;4992;51.628;6.664;2022-10-18T04:23:34;14.80;99.90
9907;DHT22;4992;51.628;6.664;2022-10-18T04:25:59;14.80;99.90
9907;DHT22;4992;51.628;6.664;2022-10-18T04:28:25;14.90;99.90
9907;DHT22;4992;51.628;6.664;2022-10-18T04:30:51;14.80;99.90
9907;DHT22;4992;51.628;6.664;2022-10-18T04:33:18;14.90;99.90
9907;DHT22;4992;51.628;6.664;2022-10-18T04:35:43;14.90;99.90
9907;DHT22;4992;51.628;6.664;2022-10-18T04:38:09;14.90;99.90
9907;DHT22;4992;51.628;6.664;2022-10-18T04:40:35;14.90;99.90
9907;DHT22;4992;51.628;6.664;2022-10-18T04:43:01;14.90;99.90
9907;DHT22;4992;51.628;6.664;2022-10-18T04:45:27;14.90;99.90
9907;DHT22;4992;51.628;6.664;2022-10-18T04:47:52;14.90;99.90
9907;DHT22;4992;51.628;6.664;2022-10-18T04:50:18;14.90;99.90
9907;DHT22;4992;51.628;6.664;2022-10-18T04:52:43;14.90;99.90
9907;DHT22;4992;51.628;6.664;2022-10-18T04:55:09;14.90;99.90
9907;DHT22;4992;51.628;6.664;2022-10-18T04:57:34;14.90;99.90
9907;DHT22;4992;51.628;6.664;2022-10-18T05:00:00;14.90;99.90
9907;DHT22;4992;51.628;6.664;2022-10-18T05:02:25;14.90;99.90
9907;DHT22;4992;51.628;6.664;2022-10-18T05:04:51;14.80;99.90
9907;DHT22;4992;51.628;6.664;2022-10-18T05:07:16;14.80;99.90
9907;DHT22;4992;51.628;6.664;2022-10-18T05:09:42;14.80;99.90
9907;DHT22;4992;51.628;6.664;2022-10-18T05:12:08;14.80;99.90
9907;DHT22;4992;51.628;6.664;2022-10-18T05:14:33;14.80;99.90
9907;DHT22;4992;51.628;6.664;2022-10-18T05:16:58;14.80;99.90
9907;DHT22;4992;51.628;6.664;2022-10-18T05:19:24;14.80;99.90
9907;DHT22;4992;51.628;6.664;2022-10-18T05:21:50;14.80;99.90
9907;DHT22;4992;51.628;6.664;2022-10-18T05:24:15;14.80;99.90
9907;DHT22;4992;51.628;6.664;2022-10-18T05:26:41;14.80;99.90
9907;DHT22;4992;51.628;6.664;2022-10-18T05:29:06;14.80;99.90
9907;DHT22;4992;51.628;6.664;2022-10-18T05:31:32;14.80;99.90
9907;DHT22;4992;51.628;6.664;2022-10-18T05:33:57;14.80;99.90
9907;DHT22;4992;51.628;6.664;2022-10-18T05:36:23;14.80;99.90
9907;DHT22;4992;51.628;6.664;2022-10-18T05:38:50;14.80;99.90
9907;DHT22;4992;51.628;6.664;2022-10-18T05:41:17;14.80;99.90
9907;DHT22;4992;51.628;6.664;2022-10-18T05:43:42;14.90;99.90
9907;DHT22;4992;51.628;6.664;2022-10-18T05:46:08;14.80;99.90
9907;DHT22;4992;51.628;6.664;2022-10-18T05:48:34;14.80;99.90
9907;DHT22;4992;51.628;6.664;2022-10-18T05:51:00;14.90;99.90
9907;DHT22;4992;51.628;6.664;2022-10-18T05:53:27;14.90;99.90
9907;DHT22;4992;51.628;6.664;2022-10-18T05:55:52;14.90;99.90
9907;DHT22;4992;51.628;6.664;2022-10-18T05:58:18;14.90;99.90
9907;DHT22;4992;51.628;6.664;2022-10-18T06:00:43;14.90;99.90
9907;DHT22;4992;51.628;6.664;2022-10-18T06:03:09;14.90;99.90
9907;DHT22;4992;51.628;6.664;2022-10-18T06:05:34;14.90;99.90
9907;DHT22;4992;51.628;6.664;2022-10-18T06:08:00;14.90;99.90
9907;DHT22;4992;51.628;6.664;2022-10-18T06:10:25;14.90;99.90
9907;DHT22;4992;51.628;6.664;2022-10-18T06:12:51;14.90;99.90
9907;DHT22;4992;51.628;6.664;2022-10-18T06:15:17;14.90;99.90
9907;DHT22;4992;51.628;6.664;2022-10-18T06:17:43;14.90;99.90
9907;DHT22;4992;51.628;6.664;2022-10-18T06:20:08;14.90;99.90
9907;DHT22;4992;51.628;6.664;2022-10-18T06:22:34;14.90;99.90
9907;DHT22;4992;51.628;6.664;2022-10-18T06:24:59;14.90;99.90
9907;DHT22;4992;51.628;6.664;2022-10-18T06:29:57;14.90;99.90
9907;DHT22;4992;51.628;6.664;2022-10-18T06:32:22;15.00;99.90
9907;DHT22;4992;51.628;6.664;2022-10-18T06:34:48;15.00;99.90
9907;DHT22;4992;51.628;6.664;2022-10-18T06:37:13;15.00;99.90
9907;DHT22;4992;51.628;6.664;2022-10-18T06:39:39;15.00;99.90
9907;DHT22;4992;51.628;6.664;2022-10-18T06:42:05;15.00;99.90
9907;DHT22;4992;51.628;6.664;2022-10-18T06:44:30;15.00;99.90
9907;DHT22;4992;51.628;6.664;2022-10-18T06:46:56;15.00;99.90
9907;DHT22;4992;51.628;6.664;2022-10-18T06:49:21;15.00;99.90
9907;DHT22;4992;51.628;6.664;2022-10-18T06:51:47;15.00;99.90
9907;DHT22;4992;51.628;6.664;2022-10-18T06:54:12;15.00;99.90
9907;DHT22;4992;51.628;6.664;2022-10-18T06:56:38;15.00;99.90
9907;DHT22;4992;51.628;6.664;2022-10-18T06:59:04;15.00;99.90
9907;DHT22;4992;51.628;6.664;2022-10-18T07:01:29;15.00;99.90
9907;DHT22;4992;51.628;6.664;2022-10-18T07:03:55;15.00;99.90
9907;DHT22;4992;51.628;6.664;2022-10-18T07:06:22;15.00;99.90
9907;DHT22;4992;51.628;6.664;2022-10-18T07:08:49;15.10;99.90
9907;DHT22;4992;51.628;6.664;2022-10-18T07:11:21;15.10;99.90
9907;DHT22;4992;51.628;6.664;2022-10-18T07:13:48;15.10;99.90
9907;DHT22;4992;51.628;6.664;2022-10-18T07:16:16;15.10;99.90
9907;DHT22;4992;51.628;6.664;2022-10-18T07:18:48;15.10;99.90
9907;DHT22;4992;51.628;6.664;2022-10-18T07:21:17;15.10;99.90
9907;DHT22;4992;51.628;6.664;2022-10-18T07:23:43;15.10;99.90
9907;DHT22;4992;51.628;6.664;2022-10-18T07:26:13;15.10;99.90
9907;DHT22;4992;51.628;6.664;2022-10-18T07:28:40;15.10;99.90
9907;DHT22;4992;51.628;6.664;2022-10-18T07:31:06;15.10;99.90
9907;DHT22;4992;51.628;6.664;2022-10-18T07:33:33;15.10;99.90
9907;DHT22;4992;51.628;6.664;2022-10-18T07:36:03;15.20;99.90
9907;DHT22;4992;51.628;6.664;2022-10-18T07:38:29;15.20;99.90
9907;DHT22;4992;51.628;6.664;2022-10-18T07:40:56;15.20;99.90
9907;DHT22;4992;51.628;6.664;2022-10-18T07:43:23;15.20;99.90
9907;DHT22;4992;51.628;6.664;2022-10-18T07:45:56;15.20;99.90
9907;DHT22;4992;51.628;6.664;2022-10-18T07:48:23;15.20;99.90
9907;DHT22;4992;51.628;6.664;2022-10-18T07:50:49;15.10;99.90
9907;DHT22;4992;51.628;6.664;2022-10-18T07:53:14;15.10;99.90
9907;DHT22;4992;51.628;6.664;2022-10-18T07:55:40;15.00;99.90
9907;DHT22;4992;51.628;6.664;2022-10-18T07:58:06;15.00;99.90
9907;DHT22;4992;51.628;6.664;2022-10-18T08:00:31;15.00;99.90
9907;DHT22;4992;51.628;6.664;2022-10-18T08:02:58;15.00;99.90
9907;DHT22;4992;51.628;6.664;2022-10-18T08:05:25;15.00;99.90
9907;DHT22;4992;51.628;6.664;2022-10-18T08:07:51;15.00;99.90
9907;DHT22;4992;51.628;6.664;2022-10-18T08:10:17;15.00;99.90
9907;DHT22;4992;51.628;6.664;2022-10-18T08:12:42;15.00;99.90
9907;DHT22;4992;51.628;6.664;2022-10-18T08:15:08;15.00;99.90
9907;DHT22;4992;51.628;6.664;2022-10-18T08:17:34;15.00;99.90
9907;DHT22;4992;51.628;6.664;2022-10-18T08:19:59;15.00;99.90
9907;DHT22;4992;51.628;6.664;2022-10-18T08:22:25;15.00;99.90
9907;DHT22;4992;51.628;6.664;2022-10-18T08:24:50;15.10;99.90
9907;DHT22;4992;51.628;6.664;2022-10-18T08:27:16;15.10;99.90
9907;DHT22;4992;51.628;6.664;2022-10-18T08:29:42;15.10;99.90
9907;DHT22;4992;51.628;6.664;2022-10-18T08:32:07;15.10;99.90
9907;DHT22;4992;51.628;6.664;2022-10-18T08:34:33;15.10;99.90
9907;DHT22;4992;51.628;6.664;2022-10-18T08:36:59;15.10;99.90
9907;DHT22;4992;51.628;6.664;2022-10-18T08:39:25;15.20;99.90
9907;DHT22;4992;51.628;6.664;2022-10-18T08:42:22;15.20;99.90
9907;DHT22;4992;51.628;6.664;2022-10-18T08:44:50;15.30;99.90
9907;DHT22;4992;51.628;6.664;2022-10-18T08:47:36;15.30;99.90
9907;DHT22;4992;51.628;6.664;2022-10-18T08:50:05;15.30;99.90
9907;DHT22;4992;51.628;6.664;2022-10-18T08:55:25;15.30;99.90
9907;DHT22;4992;51.628;6.664;2022-10-18T08:57:56;15.30;99.90
9907;DHT22;4992;51.628;6.664;2022-10-18T09:00:24;15.30;99.90
9907;DHT22;4992;51.628;6.664;2022-10-18T09:05:52;15.40;99.90
9907;DHT22;4992;51.628;6.664;2022-10-18T09:11:25;15.30;99.90
9907;DHT22;4992;51.628;6.664;2022-10-18T09:17:10;15.30;99.90
9907;DHT22;4992;51.628;6.664;2022-10-18T09:19:49;15.40;99.90
9907;DHT22;4992;51.628;6.664;2022-10-18T09:22:26;15.40;99.90
9907;DHT22;4992;51.628;6.664;2022-10-18T09:25:25;15.50;99.90
9907;DHT22;4992;51.628;6.664;2022-10-18T09:30:48;15.80;99.90
9907;DHT22;4992;51.628;6.664;2022-10-18T09:33:57;15.90;99.90
9907;DHT22;4992;51.628;6.664;2022-10-18T09:36:28;16.00;99.90
9907;DHT22;4992;51.628;6.664;2022-10-18T09:39:02;16.20;99.90
9907;DHT22;4992;51.628;6.664;2022-10-18T09:41:50;16.20;99.90
9907;DHT22;4992;51.628;6.664;2022-10-18T09:44:38;16.30;99.90
9907;DHT22;4992;51.628;6.664;2022-10-18T09:47:12;16.40;99.90
9907;DHT22;4992;51.628;6.664;2022-10-18T09:49:44;16.50;99.90
9907;DHT22;4992;51.628;6.664;2022-10-18T09:52:25;16.50;99.90
9907;DHT22;4992;51.628;6.664;2022-10-18T09:54:57;16.60;99.90
9907;DHT22;4992;51.628;6.664;2022-10-18T09:57:44;16.70;99.90
9907;DHT22;4992;51.628;6.664;2022-10-18T10:00:25;16.80;99.90
9907;DHT22;4992;51.628;6.664;2022-10-18T10:02:53;16.80;99.90
9907;DHT22;4992;51.628;6.664;2022-10-18T10:05:19;16.70;99.90
9907;DHT22;4992;51.628;6.664;2022-10-18T10:07:46;16.70;99.90
9907;DHT22;4992;51.628;6.664;2022-10-18T10:10:24;16.70;99.90
9907;DHT22;4992;51.628;6.664;2022-10-18T10:13:18;16.80;99.90
9907;DHT22;4992;51.628;6.664;2022-10-18T10:16:00;16.80;99.90
9907;DHT22;4992;51.628;6.664;2022-10-18T10:18:33;16.80;99.90
9907;DHT22;4992;51.628;6.664;2022-10-18T10:21:04;16.80;99.90
9907;DHT22;4992;51.628;6.664;2022-10-18T10:23:51;16.90;99.90
9907;DHT22;4992;51.628;6.664;2022-10-18T10:26:23;16.90;99.90
9907;DHT22;4992;51.628;6.664;2022-10-18T10:28:50;17.00;99.90
9907;DHT22;4992;51.628;6.664;2022-10-18T10:31:29;17.00;99.90
9907;DHT22;4992;51.628;6.664;2022-10-18T10:36:30;17.10;99.90
9907;DHT22;4992;51.628;6.664;2022-10-18T10:41:32;17.30;99.90
9907;DHT22;4992;51.628;6.664;2022-10-18T10:44:01;17.40;99.90
9907;DHT22;4992;51.628;6.664;2022-10-18T10:46:33;17.50;99.90
9907;DHT22;4992;51.628;6.664;2022-10-18T10:49:00;17.50;99.90
9907;DHT22;4992;51.628;6.664;2022-10-18T10:51:37;17.50;99.90
9907;DHT22;4992;51.628;6.664;2022-10-18T10:57:00;17.60;99.90
9907;DHT22;4992;51.628;6.664;2022-10-18T10:59:30;17.70;99.90
9907;DHT22;4992;51.628;6.664;2022-10-18T11:02:19;17.80;99.90
9907;DHT22;4992;51.628;6.664;2022-10-18T11:04:54;18.00;99.90
9907;DHT22;4992;51.628;6.664;2022-10-18T11:07:32;18.30;99.90
9907;DHT22;4992;51.628;6.664;2022-10-18T11:15:28;18.60;99.90
9907;DHT22;4992;51.628;6.664;2022-10-18T11:20:52;18.40;99.90
9907;DHT22;4992;51.628;6.664;2022-10-18T11:23:20;18.40;99.90
9907;DHT22;4992;51.628;6.664;2022-10-18T11:31:16;18.60;99.90
9907;DHT22;4992;51.628;6.664;2022-10-18T11:36:34;18.90;99.90
9907;DHT22;4992;51.628;6.664;2022-10-18T11:39:26;18.80;99.90
9907;DHT22;4992;51.628;6.664;2022-10-18T11:42:18;18.80;99.90
9907;DHT22;4992;51.628;6.664;2022-10-18T11:44:55;18.80;99.90
9907;DHT22;4992;51.628;6.664;2022-10-18T11:47:43;18.90;99.90
9907;DHT22;4992;51.628;6.664;2022-10-18T11:58:45;19.80;99.90
9907;DHT22;4992;51.628;6.664;2022-10-18T12:01:27;20.10;99.90
9907;DHT22;4992;51.628;6.664;2022-10-18T12:04:31;20.30;99.90
9907;DHT22;4992;51.628;6.664;2022-10-18T12:06:58;20.60;99.90
9907;DHT22;4992;51.628;6.664;2022-10-18T12:09:31;20.80;99.90
9907;DHT22;4992;51.628;6.664;2022-10-18T12:14:50;21.30;99.90
9907;DHT22;4992;51.628;6.664;2022-10-18T12:19:56;21.80;99.90
9907;DHT22;4992;51.628;6.664;2022-10-18T12:22:32;22.10;99.90
9907;DHT22;4992;51.628;6.664;2022-10-18T12:24:58;22.60;99.90
9907;DHT22;4992;51.628;6.664;2022-10-18T12:27:35;22.90;99.90
9907;DHT22;4992;51.628;6.664;2022-10-18T12:30:13;23.10;99.90
9907;DHT22;4992;51.628;6.664;2022-10-18T12:32:40;23.40;99.90
9907;DHT22;4992;51.628;6.664;2022-10-18T12:35:11;23.80;99.90
9907;DHT22;4992;51.628;6.664;2022-10-18T12:38:04;24.10;99.90
9907;DHT22;4992;51.628;6.664;2022-10-18T12:40:39;24.20;99.90
9907;DHT22;4992;51.628;6.664;2022-10-18T12:43:32;24.40;99.90
9907;DHT22;4992;51.628;6.664;2022-10-18T12:46:03;24.40;99.90
9907;DHT22;4992;51.628;6.664;2022-10-18T12:48:33;24.70;99.90
9907;DHT22;4992;51.628;6.664;2022-10-18T12:51:16;24.80;99.90
9907;DHT22;4992;51.628;6.664;2022-10-18T12:53:43;25.10;99.90
9907;DHT22;4992;51.628;6.664;2022-10-18T13:09:38;28.40;99.90
9907;DHT22;4992;51.628;6.664;2022-10-18T13:17:36;29.60;99.90
9907;DHT22;4992;51.628;6.664;2022-10-18T13:24:05;29.50;99.90
9907;DHT22;4992;51.628;6.664;2022-10-18T13:29:29;29.80;99.90
9907;DHT22;4992;51.628;6.664;2022-10-18T13:32:14;29.30;99.90
9907;DHT22;4992;51.628;6.664;2022-10-18T13:34:42;29.60;99.90
9907;DHT22;4992;51.628;6.664;2022-10-18T13:39:34;30.30;99.90
9907;DHT22;4992;51.628;6.664;2022-10-18T13:44:26;30.70;99.90
9907;DHT22;4992;51.628;6.664;2022-10-18T13:49:52;30.50;99.90
9907;DHT22;4992;51.628;6.664;2022-10-18T13:58:28;30.50;99.90
9907;DHT22;4992;51.628;6.664;2022-10-18T14:01:08;31.20;99.90
9907;DHT22;4992;51.628;6.664;2022-10-18T14:06:39;32.40;99.90
9907;DHT22;4992;51.628;6.664;2022-10-18T14:09:23;32.10;99.90
9907;DHT22;4992;51.628;6.664;2022-10-18T14:12:00;31.80;99.90
9907;DHT22;4992;51.628;6.664;2022-10-18T14:14:31;31.60;99.90
9907;DHT22;4992;51.628;6.664;2022-10-18T14:17:20;31.60;99.90
9907;DHT22;4992;51.628;6.664;2022-10-18T14:22:29;31.30;99.90
9907;DHT22;4992;51.628;6.664;2022-10-18T14:24:57;30.60;99.90
9907;DHT22;4992;51.628;6.664;2022-10-18T14:27:30;29.70;99.90
9907;DHT22;4992;51.628;6.664;2022-10-18T14:30:14;28.50;99.90
9907;DHT22;4992;51.628;6.664;2022-10-18T14:32:48;27.20;99.90
9907;DHT22;4992;51.628;6.664;2022-10-18T14:35:22;26.00;99.90
9907;DHT22;4992;51.628;6.664;2022-10-18T14:37:50;25.10;99.90
9907;DHT22;4992;51.628;6.664;2022-10-18T14:40:33;24.40;99.90
9907;DHT22;4992;51.628;6.664;2022-10-18T14:43:18;23.80;99.90
9907;DHT22;4992;51.628;6.664;2022-10-18T14:45:44;23.30;99.90
9907;DHT22;4992;51.628;6.664;2022-10-18T14:48:14;23.10;99.90
9907;DHT22;4992;51.628;6.664;2022-10-18T14:50:41;22.70;99.90
9907;DHT22;4992;51.628;6.664;2022-10-18T14:53:10;22.40;99.90
9907;DHT22;4992;51.628;6.664;2022-10-18T14:55:38;22.00;99.90
9907;DHT22;4992;51.628;6.664;2022-10-18T14:58:11;21.60;99.90
9907;DHT22;4992;51.628;6.664;2022-10-18T15:00:39;21.10;99.90
9907;DHT22;4992;51.628;6.664;2022-10-18T15:03:05;20.70;99.90
9907;DHT22;4992;51.628;6.664;2022-10-18T15:05:34;20.40;99.90
9907;DHT22;4992;51.628;6.664;2022-10-18T15:08:00;20.20;99.90
9907;DHT22;4992;51.628;6.664;2022-10-18T15:10:29;20.00;99.90
9907;DHT22;4992;51.628;6.664;2022-10-18T15:12:56;19.80;99.90
9907;DHT22;4992;51.628;6.664;2022-10-18T15:15:28;19.60;99.90
9907;DHT22;4992;51.628;6.664;2022-10-18T15:17:55;19.40;99.90
9907;DHT22;4992;51.628;6.664;2022-10-18T15:20:24;19.20;99.90
9907;DHT22;4992;51.628;6.664;2022-10-18T15:22:50;19.00;99.90
9907;DHT22;4992;51.628;6.664;2022-10-18T15:25:20;18.80;99.90
9907;DHT22;4992;51.628;6.664;2022-10-18T15:27:52;18.70;99.90
9907;DHT22;4992;51.628;6.664;2022-10-18T15:30:24;18.50;99.90
9907;DHT22;4992;51.628;6.664;2022-10-18T15:32:55;18.40;99.90
9907;DHT22;4992;51.628;6.664;2022-10-18T15:35:26;18.20;99.90
9907;DHT22;4992;51.628;6.664;2022-10-18T15:37:54;18.10;99.90
9907;DHT22;4992;51.628;6.664;2022-10-18T15:42:57;17.90;99.90
9907;DHT22;4992;51.628;6.664;2022-10-18T15:50:47;17.50;99.90
9907;DHT22;4992;51.628;6.664;2022-10-18T15:53:23;17.50;99.90
9907;DHT22;4992;51.628;6.664;2022-10-18T15:55:56;17.30;99.90
9907;DHT22;4992;51.628;6.664;2022-10-18T15:58:45;17.30;99.90
9907;DHT22;4992;51.628;6.664;2022-10-18T16:01:22;17.10;99.90
9907;DHT22;4992;51.628;6.664;2022-10-18T16:03:49;17.00;99.90
9907;DHT22;4992;51.628;6.664;2022-10-18T16:06:16;16.90;99.90
9907;DHT22;4992;51.628;6.664;2022-10-18T16:08:46;16.80;99.90
9907;DHT22;4992;51.628;6.664;2022-10-18T16:11:15;16.70;99.90
9907;DHT22;4992;51.628;6.664;2022-10-18T16:13:41;16.60;99.90
9907;DHT22;4992;51.628;6.664;2022-10-18T16:16:15;16.50;99.90
9907;DHT22;4992;51.628;6.664;2022-10-18T16:18:41;16.40;99.90
9907;DHT22;4992;51.628;6.664;2022-10-18T16:21:22;16.30;99.90
9907;DHT22;4992;51.628;6.664;2022-10-18T16:23:48;16.10;99.90
9907;DHT22;4992;51.628;6.664;2022-10-18T16:26:15;16.00;99.90
9907;DHT22;4992;51.628;6.664;2022-10-18T16:28:41;15.80;99.90
9907;DHT22;4992;51.628;6.664;2022-10-18T16:31:13;15.70;99.90
9907;DHT22;4992;51.628;6.664;2022-10-18T16:33:39;15.50;99.90
9907;DHT22;4992;51.628;6.664;2022-10-18T16:36:04;15.40;99.90
9907;DHT22;4992;51.628;6.664;2022-10-18T16:38:34;15.20;99.90
9907;DHT22;4992;51.628;6.664;2022-10-18T16:41:04;15.10;99.90
9907;DHT22;4992;51.628;6.664;2022-10-18T16:43:31;14.90;99.90
9907;DHT22;4992;51.628;6.664;2022-10-18T16:45:56;14.70;99.90
9907;DHT22;4992;51.628;6.664;2022-10-18T16:48:23;14.60;99.90
9907;DHT22;4992;51.628;6.664;2022-10-18T16:50:49;14.50;99.90
9907;DHT22;4992;51.628;6.664;2022-10-18T16:53:14;14.30;99.90
9907;DHT22;4992;51.628;6.664;2022-10-18T16:55:41;14.20;99.90
9907;DHT22;4992;51.628;6.664;2022-10-18T16:58:12;14.10;99.90
9907;DHT22;4992;51.628;6.664;2022-10-18T17:00:38;14.00;99.90
9907;DHT22;4992;51.628;6.664;2022-10-18T17:03:05;13.90;99.90
9907;DHT22;4992;51.628;6.664;2022-10-18T17:05:31;13.80;99.90
9907;DHT22;4992;51.628;6.664;2022-10-18T17:07:56;13.70;99.90
9907;DHT22;4992;51.628;6.664;2022-10-18T17:10:22;13.60;99.90
9907;DHT22;4992;51.628;6.664;2022-10-18T17:12:49;13.60;99.90
9907;DHT22;4992;51.628;6.664;2022-10-18T17:15:16;13.40;99.90
9907;DHT22;4992;51.628;6.664;2022-10-18T17:17:41;13.40;99.90
9907;DHT22;4992;51.628;6.664;2022-10-18T17:20:08;13.20;99.90
9907;DHT22;4992;51.628;6.664;2022-10-18T17:22:34;13.20;99.90
9907;DHT22;4992;51.628;6.664;2022-10-18T17:24:59;13.00;99.90
9907;DHT22;4992;51.628;6.664;2022-10-18T17:27:25;12.90;99.90
9907;DHT22;4992;51.628;6.664;2022-10-18T17:29:50;12.90;99.90
9907;DHT22;4992;51.628;6.664;2022-10-18T17:32:16;12.80;99.90
9907;DHT22;4992;51.628;6.664;2022-10-18T17:34:41;12.70;99.90
9907;DHT22;4992;51.628;6.664;2022-10-18T17:37:07;12.70;99.90
9907;DHT22;4992;51.628;6.664;2022-10-18T17:39:33;12.60;99.90
9907;DHT22;4992;51.628;6.664;2022-10-18T17:41:58;12.70;99.90
9907;DHT22;4992;51.628;6.664;2022-10-18T17:44:24;12.70;99.90
9907;DHT22;4992;51.628;6.664;2022-10-18T17:46:50;12.60;99.90
9907;DHT22;4992;51.628;6.664;2022-10-18T17:49:16;12.60;99.90
9907;DHT22;4992;51.628;6.664;2022-10-18T17:51:42;12.60;99.90
9907;DHT22;4992;51.628;6.664;2022-10-18T17:54:10;12.60;99.90
9907;DHT22;4992;51.628;6.664;2022-10-18T17:56:38;12.50;99.90
9907;DHT22;4992;51.628;6.664;2022-10-18T17:59:03;12.40;99.90
9907;DHT22;4992;51.628;6.664;2022-10-18T18:01:29;12.30;99.90
9907;DHT22;4992;51.628;6.664;2022-10-18T18:03:59;12.20;99.90
9907;DHT22;4992;51.628;6.664;2022-10-18T18:06:30;12.10;99.90
9907;DHT22;4992;51.628;6.664;2022-10-18T18:09:00;12.10;99.90
9907;DHT22;4992;51.628;6.664;2022-10-18T18:11:27;12.10;99.90
9907;DHT22;4992;51.628;6.664;2022-10-18T18:13:56;12.00;99.90
9907;DHT22;4992;51.628;6.664;2022-10-18T18:16:25;12.00;99.90